sensor_id;sensor_type;location;lat;lon;timestamp;P1;durP1;ratioP1;P2;durP2;ratioP2
52590;SDS011;38483;42.620;25.394;2024-03-08T00:00:10;21.10;;;13.30;;
52590;SDS011;38483;42.620;25.394;2024-03-08T00:02:44;20.73;;;13.63;;
52590;SDS011;38483;42.620;25.394;2024-03-08T00:05:13;23.93;;;15.20;;
52590;SDS011;38483;42.620;25.394;2024-03-08T00:07:41;20.33;;;13.10;;
52590;SDS011;38483;42.620;25.394;2024-03-08T00:10:11;20.33;;;13.40;;
52590;SDS011;38483;42.620;25.394;2024-03-08T00:12:44;20.90;;;13.67;;
52590;SDS011;38483;42.620;25.394;2024-03-08T00:15:13;16.90;;;12.17;;
52590;SDS011;38483;42.620;25.394;2024-03-08T00:17:44;20.17;;;11.77;;
52590;SDS011;38483;42.620;25.394;2024-03-08T00:20:12;19.63;;;11.80;;
52590;SDS011;38483;42.620;25.394;2024-03-08T00:22:40;20.03;;;12.43;;
52590;SDS011;38483;42.620;25.394;2024-03-08T00:25:07;17.43;;;11.13;;
52590;SDS011;38483;42.620;25.394;2024-03-08T00:27:42;16.00;;;10.80;;
52590;SDS011;38483;42.620;25.394;2024-03-08T00:30:09;19.73;;;12.33;;
52590;SDS011;38483;42.620;25.394;2024-03-08T00:32:40;20.67;;;13.10;;
52590;SDS011;38483;42.620;25.394;2024-03-08T00:35:07;23.37;;;14.53;;
52590;SDS011;38483;42.620;25.394;2024-03-08T00:37:35;22.07;;;14.10;;
52590;SDS011;38483;42.620;25.394;2024-03-08T00:40:02;23.47;;;15.20;;
52590;SDS011;38483;42.620;25.394;2024-03-08T00:42:30;25.23;;;15.80;;
52590;SDS011;38483;42.620;25.394;2024-03-08T00:44:57;26.00;;;15.70;;
52590;SDS011;38483;42.620;25.394;2024-03-08T00:47:25;25.70;;;16.20;;
52590;SDS011;38483;42.620;25.394;2024-03-08T00:49:52;28.50;;;16.40;;
52590;SDS011;38483;42.620;25.394;2024-03-08T00:53:14;27.77;;;16.77;;
52590;SDS011;38483;42.620;25.394;2024-03-08T00:56:34;29.93;;;17.43;;
52590;SDS011;38483;42.620;25.394;2024-03-08T00:59:55;26.67;;;17.07;;
52590;SDS011;38483;42.620;25.394;2024-03-08T01:03:16;27.20;;;16.97;;
52590;SDS011;38483;42.620;25.394;2024-03-08T01:06:37;26.90;;;14.50;;
52590;SDS011;38483;42.620;25.394;2024-03-08T01:09:58;18.60;;;12.27;;
52590;SDS011;38483;42.620;25.394;2024-03-08T01:13:18;23.47;;;12.93;;
52590;SDS011;38483;42.620;25.394;2024-03-08T01:16:39;24.07;;;14.53;;
52590;SDS011;38483;42.620;25.394;2024-03-08T01:19:59;21.27;;;13.23;;
52590;SDS011;38483;42.620;25.394;2024-03-08T01:23:21;20.57;;;13.00;;
52590;SDS011;38483;42.620;25.394;2024-03-08T01:26:43;22.10;;;13.97;;
52590;SDS011;38483;42.620;25.394;2024-03-08T01:30:05;23.40;;;15.37;;
52590;SDS011;38483;42.620;25.394;2024-03-08T01:33:26;23.07;;;14.10;;
52590;SDS011;38483;42.620;25.394;2024-03-08T01:36:46;23.70;;;14.63;;
52590;SDS011;38483;42.620;25.394;2024-03-08T01:40:07;23.83;;;14.23;;
52590;SDS011;38483;42.620;25.394;2024-03-08T01:43:28;23.53;;;14.43;;
52590;SDS011;38483;42.620;25.394;2024-03-08T01:46:49;24.70;;;14.97;;
52590;SDS011;38483;42.620;25.394;2024-03-08T01:50:10;24.83;;;16.10;;
52590;SDS011;38483;42.620;25.394;2024-03-08T01:53:30;23.30;;;14.20;;
52590;SDS011;38483;42.620;25.394;2024-03-08T01:56:51;26.17;;;15.77;;
52590;SDS011;38483;42.620;25.394;2024-03-08T02:00:14;29.93;;;17.43;;
52590;SDS011;38483;42.620;25.394;2024-03-08T02:03:34;30.47;;;17.93;;
52590;SDS011;38483;42.620;25.394;2024-03-08T02:06:55;31.03;;;18.43;;
52590;SDS011;38483;42.620;25.394;2024-03-08T02:10:16;33.23;;;18.63;;
52590;SDS011;38483;42.620;25.394;2024-03-08T02:13:40;35.37;;;18.93;;
52590;SDS011;38483;42.620;25.394;2024-03-08T02:17:01;31.60;;;18.17;;
52590;SDS011;38483;42.620;25.394;2024-03-08T02:20:21;33.07;;;20.00;;
52590;SDS011;38483;42.620;25.394;2024-03-08T02:23:45;37.47;;;21.43;;
52590;SDS011;38483;42.620;25.394;2024-03-08T02:27:06;37.73;;;20.97;;
52590;SDS011;38483;42.620;25.394;2024-03-08T02:30:26;40.57;;;21.97;;
52590;SDS011;38483;42.620;25.394;2024-03-08T02:33:48;40.23;;;23.43;;
52590;SDS011;38483;42.620;25.394;2024-03-08T02:37:11;54.90;;;32.23;;
52590;SDS011;38483;42.620;25.394;2024-03-08T02:40:32;60.20;;;32.93;;
52590;SDS011;38483;42.620;25.394;2024-03-08T02:43:53;67.20;;;36.67;;
52590;SDS011;38483;42.620;25.394;2024-03-08T02:47:13;54.33;;;29.50;;
52590;SDS011;38483;42.620;25.394;2024-03-08T02:50:34;50.87;;;26.60;;
52590;SDS011;38483;42.620;25.394;2024-03-08T02:53:56;45.37;;;25.80;;
52590;SDS011;38483;42.620;25.394;2024-03-08T02:57:17;38.83;;;22.63;;
52590;SDS011;38483;42.620;25.394;2024-03-08T03:00:38;40.80;;;21.63;;
52590;SDS011;38483;42.620;25.394;2024-03-08T03:04:00;40.90;;;21.73;;
52590;SDS011;38483;42.620;25.394;2024-03-08T03:07:21;36.13;;;20.40;;
52590;SDS011;38483;42.620;25.394;2024-03-08T03:10:44;39.37;;;20.27;;
52590;SDS011;38483;42.620;25.394;2024-03-08T03:14:05;37.80;;;20.30;;
52590;SDS011;38483;42.620;25.394;2024-03-08T03:17:26;36.90;;;19.10;;
52590;SDS011;38483;42.620;25.394;2024-03-08T03:20:48;38.50;;;20.77;;
52590;SDS011;38483;42.620;25.394;2024-03-08T03:24:12;40.07;;;21.23;;
52590;SDS011;38483;42.620;25.394;2024-03-08T03:27:33;33.17;;;20.67;;
52590;SDS011;38483;42.620;25.394;2024-03-08T03:30:58;44.23;;;21.73;;
52590;SDS011;38483;42.620;25.394;2024-03-08T03:34:18;43.27;;;22.47;;
52590;SDS011;38483;42.620;25.394;2024-03-08T03:37:39;35.40;;;19.97;;
52590;SDS011;38483;42.620;25.394;2024-03-08T03:41:03;33.80;;;19.03;;
52590;SDS011;38483;42.620;25.394;2024-03-08T03:44:26;37.60;;;18.57;;
52590;SDS011;38483;42.620;25.394;2024-03-08T03:47:47;35.90;;;19.27;;
52590;SDS011;38483;42.620;25.394;2024-03-08T03:51:08;33.07;;;18.07;;
52590;SDS011;38483;42.620;25.394;2024-03-08T03:54:28;27.90;;;17.17;;
52590;SDS011;38483;42.620;25.394;2024-03-08T03:57:51;30.20;;;17.47;;
52590;SDS011;38483;42.620;25.394;2024-03-08T04:01:12;31.67;;;17.57;;
52590;SDS011;38483;42.620;25.394;2024-03-08T04:04:32;29.00;;;16.80;;
52590;SDS011;38483;42.620;25.394;2024-03-08T04:07:53;28.20;;;16.73;;
52590;SDS011;38483;42.620;25.394;2024-03-08T04:11:14;26.43;;;15.67;;
52590;SDS011;38483;42.620;25.394;2024-03-08T04:14:36;27.40;;;17.00;;
52590;SDS011;38483;42.620;25.394;2024-03-08T04:17:56;27.67;;;16.23;;
52590;SDS011;38483;42.620;25.394;2024-03-08T04:21:18;27.97;;;16.10;;
52590;SDS011;38483;42.620;25.394;2024-03-08T04:23:48;31.60;;;17.47;;
52590;SDS011;38483;42.620;25.394;2024-03-08T04:26:15;29.03;;;17.00;;
52590;SDS011;38483;42.620;25.394;2024-03-08T04:28:45;27.00;;;16.57;;
52590;SDS011;38483;42.620;25.394;2024-03-08T04:31:13;29.63;;;17.07;;
52590;SDS011;38483;42.620;25.394;2024-03-08T04:33:40;29.43;;;18.20;;
52590;SDS011;38483;42.620;25.394;2024-03-08T04:36:07;31.53;;;18.43;;
52590;SDS011;38483;42.620;25.394;2024-03-08T04:38:34;27.97;;;16.77;;
52590;SDS011;38483;42.620;25.394;2024-03-08T04:41:02;32.27;;;17.77;;
52590;SDS011;38483;42.620;25.394;2024-03-08T04:43:30;29.17;;;17.60;;
52590;SDS011;38483;42.620;25.394;2024-03-08T04:45:57;31.73;;;19.73;;
52590;SDS011;38483;42.620;25.394;2024-03-08T04:48:25;31.00;;;18.57;;
52590;SDS011;38483;42.620;25.394;2024-03-08T04:50:55;34.30;;;19.50;;
52590;SDS011;38483;42.620;25.394;2024-03-08T04:53:22;31.00;;;18.47;;
52590;SDS011;38483;42.620;25.394;2024-03-08T04:55:50;34.63;;;19.77;;
52590;SDS011;38483;42.620;25.394;2024-03-08T04:58:17;30.53;;;18.60;;
52590;SDS011;38483;42.620;25.394;2024-03-08T05:00:45;30.07;;;17.33;;
52590;SDS011;38483;42.620;25.394;2024-03-08T05:03:12;31.13;;;18.30;;
52590;SDS011;38483;42.620;25.394;2024-03-08T05:05:39;32.50;;;18.13;;
52590;SDS011;38483;42.620;25.394;2024-03-08T05:08:06;31.87;;;18.47;;
52590;SDS011;38483;42.620;25.394;2024-03-08T05:10:34;33.13;;;18.77;;
52590;SDS011;38483;42.620;25.394;2024-03-08T05:13:01;31.07;;;18.40;;
52590;SDS011;38483;42.620;25.394;2024-03-08T05:15:28;31.00;;;18.30;;
52590;SDS011;38483;42.620;25.394;2024-03-08T05:17:55;25.10;;;16.30;;
52590;SDS011;38483;42.620;25.394;2024-03-08T05:20:25;31.47;;;17.90;;
52590;SDS011;38483;42.620;25.394;2024-03-08T05:22:52;33.07;;;18.03;;
52590;SDS011;38483;42.620;25.394;2024-03-08T05:25:19;27.10;;;17.17;;
52590;SDS011;38483;42.620;25.394;2024-03-08T05:27:47;30.50;;;18.40;;
52590;SDS011;38483;42.620;25.394;2024-03-08T05:30:14;29.60;;;16.20;;
52590;SDS011;38483;42.620;25.394;2024-03-08T05:32:42;29.73;;;17.73;;
52590;SDS011;38483;42.620;25.394;2024-03-08T05:35:12;30.97;;;16.97;;
52590;SDS011;38483;42.620;25.394;2024-03-08T05:37:39;31.97;;;17.63;;
52590;SDS011;38483;42.620;25.394;2024-03-08T05:40:06;27.23;;;16.33;;
52590;SDS011;38483;42.620;25.394;2024-03-08T05:42:43;28.87;;;17.33;;
52590;SDS011;38483;42.620;25.394;2024-03-08T05:45:10;29.20;;;17.70;;
52590;SDS011;38483;42.620;25.394;2024-03-08T05:47:38;32.13;;;20.27;;
52590;SDS011;38483;42.620;25.394;2024-03-08T05:50:06;34.03;;;21.00;;
52590;SDS011;38483;42.620;25.394;2024-03-08T05:52:38;34.00;;;19.90;;
52590;SDS011;38483;42.620;25.394;2024-03-08T05:55:05;32.20;;;19.47;;
52590;SDS011;38483;42.620;25.394;2024-03-08T05:57:34;30.53;;;18.20;;
52590;SDS011;38483;42.620;25.394;2024-03-08T06:00:04;36.57;;;20.67;;
52590;SDS011;38483;42.620;25.394;2024-03-08T06:02:38;35.47;;;19.83;;
52590;SDS011;38483;42.620;25.394;2024-03-08T06:05:11;33.97;;;20.97;;
52590;SDS011;38483;42.620;25.394;2024-03-08T06:07:38;33.77;;;20.30;;
52590;SDS011;38483;42.620;25.394;2024-03-08T06:10:09;32.97;;;18.17;;
52590;SDS011;38483;42.620;25.394;2024-03-08T06:12:39;30.30;;;17.77;;
52590;SDS011;38483;42.620;25.394;2024-03-08T06:15:09;30.30;;;18.10;;
52590;SDS011;38483;42.620;25.394;2024-03-08T06:17:37;29.83;;;18.23;;
52590;SDS011;38483;42.620;25.394;2024-03-08T06:20:04;31.23;;;19.63;;
52590;SDS011;38483;42.620;25.394;2024-03-08T06:22:37;32.67;;;18.70;;
52590;SDS011;38483;42.620;25.394;2024-03-08T06:25:10;36.90;;;20.43;;
52590;SDS011;38483;42.620;25.394;2024-03-08T06:27:42;35.03;;;20.10;;
52590;SDS011;38483;42.620;25.394;2024-03-08T06:30:09;31.30;;;19.23;;
52590;SDS011;38483;42.620;25.394;2024-03-08T06:32:37;33.63;;;19.90;;
52590;SDS011;38483;42.620;25.394;2024-03-08T06:35:05;32.20;;;18.73;;
52590;SDS011;38483;42.620;25.394;2024-03-08T06:37:36;27.27;;;16.77;;
52590;SDS011;38483;42.620;25.394;2024-03-08T06:40:04;28.93;;;17.57;;
52590;SDS011;38483;42.620;25.394;2024-03-08T06:42:31;27.33;;;17.47;;
52590;SDS011;38483;42.620;25.394;2024-03-08T06:45:02;30.93;;;18.30;;
52590;SDS011;38483;42.620;25.394;2024-03-08T06:47:32;33.93;;;20.90;;
52590;SDS011;38483;42.620;25.394;2024-03-08T06:50:00;45.87;;;26.00;;
52590;SDS011;38483;42.620;25.394;2024-03-08T06:52:29;49.40;;;25.83;;
52590;SDS011;38483;42.620;25.394;2024-03-08T06:54:56;36.77;;;20.63;;
52590;SDS011;38483;42.620;25.394;2024-03-08T06:57:24;37.30;;;21.30;;
52590;SDS011;38483;42.620;25.394;2024-03-08T06:59:50;35.63;;;20.67;;
52590;SDS011;38483;42.620;25.394;2024-03-08T07:02:19;42.17;;;24.47;;
52590;SDS011;38483;42.620;25.394;2024-03-08T07:04:46;39.80;;;23.53;;
52590;SDS011;38483;42.620;25.394;2024-03-08T07:07:13;37.90;;;22.63;;
52590;SDS011;38483;42.620;25.394;2024-03-08T07:09:40;33.63;;;19.93;;
52590;SDS011;38483;42.620;25.394;2024-03-08T07:12:09;31.77;;;18.93;;
52590;SDS011;38483;42.620;25.394;2024-03-08T07:14:36;35.60;;;22.83;;
52590;SDS011;38483;42.620;25.394;2024-03-08T07:17:07;29.03;;;18.23;;
52590;SDS011;38483;42.620;25.394;2024-03-08T07:19:38;27.90;;;16.80;;
52590;SDS011;38483;42.620;25.394;2024-03-08T07:22:05;32.73;;;18.97;;
52590;SDS011;38483;42.620;25.394;2024-03-08T07:24:35;28.03;;;16.73;;
52590;SDS011;38483;42.620;25.394;2024-03-08T07:27:05;29.90;;;18.17;;
52590;SDS011;38483;42.620;25.394;2024-03-08T07:29:32;34.07;;;19.93;;
52590;SDS011;38483;42.620;25.394;2024-03-08T07:32:00;29.37;;;17.17;;
52590;SDS011;38483;42.620;25.394;2024-03-08T07:34:48;30.60;;;19.73;;
52590;SDS011;38483;42.620;25.394;2024-03-08T07:37:17;30.30;;;18.03;;
52590;SDS011;38483;42.620;25.394;2024-03-08T07:39:46;33.57;;;19.97;;
52590;SDS011;38483;42.620;25.394;2024-03-08T07:42:13;32.13;;;19.60;;
52590;SDS011;38483;42.620;25.394;2024-03-08T07:44:40;38.53;;;23.30;;
52590;SDS011;38483;42.620;25.394;2024-03-08T07:47:07;37.00;;;24.00;;
52590;SDS011;38483;42.620;25.394;2024-03-08T07:49:36;35.83;;;21.77;;
52590;SDS011;38483;42.620;25.394;2024-03-08T07:52:06;28.70;;;18.17;;
52590;SDS011;38483;42.620;25.394;2024-03-08T07:54:34;29.37;;;18.97;;
52590;SDS011;38483;42.620;25.394;2024-03-08T07:57:04;25.20;;;15.43;;
52590;SDS011;38483;42.620;25.394;2024-03-08T07:59:33;22.70;;;13.93;;
52590;SDS011;38483;42.620;25.394;2024-03-08T08:02:00;25.73;;;14.77;;
52590;SDS011;38483;42.620;25.394;2024-03-08T08:04:27;27.03;;;15.67;;
52590;SDS011;38483;42.620;25.394;2024-03-08T08:06:54;27.13;;;17.20;;
52590;SDS011;38483;42.620;25.394;2024-03-08T08:09:22;36.23;;;25.10;;
52590;SDS011;38483;42.620;25.394;2024-03-08T08:11:55;19.73;;;13.40;;
52590;SDS011;38483;42.620;25.394;2024-03-08T08:14:22;19.13;;;13.37;;
52590;SDS011;38483;42.620;25.394;2024-03-08T08:16:49;20.00;;;13.17;;
52590;SDS011;38483;42.620;25.394;2024-03-08T08:19:19;22.23;;;14.53;;
52590;SDS011;38483;42.620;25.394;2024-03-08T08:21:47;25.97;;;15.83;;
52590;SDS011;38483;42.620;25.394;2024-03-08T08:24:14;26.30;;;17.53;;
52590;SDS011;38483;42.620;25.394;2024-03-08T08:26:41;25.70;;;16.73;;
52590;SDS011;38483;42.620;25.394;2024-03-08T08:29:57;22.13;;;13.77;;
52590;SDS011;38483;42.620;25.394;2024-03-08T08:32:24;24.83;;;15.33;;
52590;SDS011;38483;42.620;25.394;2024-03-08T08:34:51;24.33;;;16.40;;
52590;SDS011;38483;42.620;25.394;2024-03-08T08:37:18;17.03;;;12.23;;
52590;SDS011;38483;42.620;25.394;2024-03-08T08:39:47;13.10;;;8.50;;
52590;SDS011;38483;42.620;25.394;2024-03-08T08:42:16;8.60;;;6.37;;
52590;SDS011;38483;42.620;25.394;2024-03-08T08:44:44;8.17;;;5.57;;
52590;SDS011;38483;42.620;25.394;2024-03-08T08:47:11;6.20;;;4.20;;
52590;SDS011;38483;42.620;25.394;2024-03-08T08:49:42;3.33;;;2.43;;
52590;SDS011;38483;42.620;25.394;2024-03-08T08:52:09;3.77;;;2.50;;
52590;SDS011;38483;42.620;25.394;2024-03-08T08:54:43;3.17;;;2.77;;
52590;SDS011;38483;42.620;25.394;2024-03-08T08:57:16;3.33;;;2.83;;
52590;SDS011;38483;42.620;25.394;2024-03-08T08:59:43;3.37;;;2.90;;
52590;SDS011;38483;42.620;25.394;2024-03-08T09:02:10;2.43;;;2.23;;
52590;SDS011;38483;42.620;25.394;2024-03-08T09:04:41;2.90;;;2.33;;
52590;SDS011;38483;42.620;25.394;2024-03-08T09:07:09;3.87;;;2.80;;
52590;SDS011;38483;42.620;25.394;2024-03-08T09:09:36;3.90;;;2.97;;
52590;SDS011;38483;42.620;25.394;2024-03-08T09:12:04;2.83;;;2.50;;
52590;SDS011;38483;42.620;25.394;2024-03-08T09:14:31;4.40;;;2.70;;
52590;SDS011;38483;42.620;25.394;2024-03-08T09:16:58;3.17;;;2.77;;
52590;SDS011;38483;42.620;25.394;2024-03-08T09:19:25;3.37;;;2.90;;
52590;SDS011;38483;42.620;25.394;2024-03-08T09:21:52;3.20;;;2.37;;
52590;SDS011;38483;42.620;25.394;2024-03-08T09:24:19;3.50;;;2.90;;
52590;SDS011;38483;42.620;25.394;2024-03-08T09:26:47;3.40;;;2.83;;
52590;SDS011;38483;42.620;25.394;2024-03-08T09:29:14;2.73;;;2.23;;
52590;SDS011;38483;42.620;25.394;2024-03-08T09:31:42;3.23;;;2.70;;
52590;SDS011;38483;42.620;25.394;2024-03-08T09:34:09;2.43;;;2.23;;
52590;SDS011;38483;42.620;25.394;2024-03-08T09:36:43;2.70;;;2.40;;
52590;SDS011;38483;42.620;25.394;2024-03-08T09:39:10;3.83;;;2.40;;
52590;SDS011;38483;42.620;25.394;2024-03-08T09:41:43;3.63;;;2.70;;
52590;SDS011;38483;42.620;25.394;2024-03-08T09:44:10;2.87;;;2.40;;
52590;SDS011;38483;42.620;25.394;2024-03-08T09:46:37;3.23;;;2.40;;
52590;SDS011;38483;42.620;25.394;2024-03-08T09:49:05;3.63;;;2.77;;
52590;SDS011;38483;42.620;25.394;2024-03-08T09:51:33;5.07;;;3.30;;
52590;SDS011;38483;42.620;25.394;2024-03-08T09:54:02;3.13;;;2.40;;
52590;SDS011;38483;42.620;25.394;2024-03-08T09:56:42;4.17;;;3.00;;
52590;SDS011;38483;42.620;25.394;2024-03-08T09:59:12;3.90;;;3.33;;
52590;SDS011;38483;42.620;25.394;2024-03-08T10:01:55;4.83;;;3.03;;
52590;SDS011;38483;42.620;25.394;2024-03-08T10:04:26;3.33;;;2.47;;
52590;SDS011;38483;42.620;25.394;2024-03-08T10:06:55;3.20;;;2.60;;
52590;SDS011;38483;42.620;25.394;2024-03-08T10:09:23;3.53;;;2.53;;
52590;SDS011;38483;42.620;25.394;2024-03-08T10:12:01;2.93;;;2.17;;
52590;SDS011;38483;42.620;25.394;2024-03-08T10:14:29;2.10;;;2.00;;
52590;SDS011;38483;42.620;25.394;2024-03-08T10:16:57;2.97;;;2.47;;
52590;SDS011;38483;42.620;25.394;2024-03-08T10:19:27;2.57;;;2.30;;
52590;SDS011;38483;42.620;25.394;2024-03-08T10:21:58;3.73;;;2.77;;
52590;SDS011;38483;42.620;25.394;2024-03-08T10:24:26;2.60;;;2.40;;
52590;SDS011;38483;42.620;25.394;2024-03-08T10:26:58;1.93;;;1.70;;
52590;SDS011;38483;42.620;25.394;2024-03-08T10:29:27;2.17;;;1.80;;
52590;SDS011;38483;42.620;25.394;2024-03-08T10:31:55;3.00;;;2.27;;
52590;SDS011;38483;42.620;25.394;2024-03-08T10:34:23;3.43;;;3.13;;
52590;SDS011;38483;42.620;25.394;2024-03-08T10:36:51;5.73;;;3.80;;
52590;SDS011;38483;42.620;25.394;2024-03-08T10:39:22;4.03;;;3.50;;
52590;SDS011;38483;42.620;25.394;2024-03-08T10:41:58;5.93;;;4.10;;
52590;SDS011;38483;42.620;25.394;2024-03-08T10:44:49;6.30;;;4.50;;
52590;SDS011;38483;42.620;25.394;2024-03-08T10:47:18;3.50;;;3.13;;
52590;SDS011;38483;42.620;25.394;2024-03-08T10:52:43;2.60;;;2.20;;
52590;SDS011;38483;42.620;25.394;2024-03-08T10:55:11;5.10;;;2.63;;
52590;SDS011;38483;42.620;25.394;2024-03-08T10:57:40;2.23;;;1.93;;
52590;SDS011;38483;42.620;25.394;2024-03-08T11:00:09;5.00;;;2.53;;
52590;SDS011;38483;42.620;25.394;2024-03-08T11:02:39;2.77;;;2.47;;
52590;SDS011;38483;42.620;25.394;2024-03-08T11:05:10;3.10;;;2.40;;
52590;SDS011;38483;42.620;25.394;2024-03-08T11:07:42;3.33;;;2.53;;
52590;SDS011;38483;42.620;25.394;2024-03-08T11:10:19;2.83;;;2.27;;
52590;SDS011;38483;42.620;25.394;2024-03-08T11:12:47;5.40;;;3.80;;
52590;SDS011;38483;42.620;25.394;2024-03-08T11:15:15;4.50;;;3.30;;
52590;SDS011;38483;42.620;25.394;2024-03-08T11:22:52;4.50;;;3.03;;
52590;SDS011;38483;42.620;25.394;2024-03-08T11:25:31;2.63;;;1.80;;
52590;SDS011;38483;42.620;25.394;2024-03-08T11:33:30;3.37;;;2.90;;
52590;SDS011;38483;42.620;25.394;2024-03-08T11:36:08;1.90;;;1.73;;
52590;SDS011;38483;42.620;25.394;2024-03-08T11:38:43;5.47;;;3.67;;
52590;SDS011;38483;42.620;25.394;2024-03-08T11:41:11;2.83;;;2.30;;
52590;SDS011;38483;42.620;25.394;2024-03-08T11:43:45;2.20;;;1.93;;
52590;SDS011;38483;42.620;25.394;2024-03-08T11:46:14;2.57;;;2.10;;
52590;SDS011;38483;42.620;25.394;2024-03-08T11:48:44;2.50;;;2.20;;
52590;SDS011;38483;42.620;25.394;2024-03-08T11:51:14;2.70;;;2.30;;
52590;SDS011;38483;42.620;25.394;2024-03-08T11:53:42;2.53;;;2.00;;
52590;SDS011;38483;42.620;25.394;2024-03-08T11:56:14;3.40;;;2.60;;
52590;SDS011;38483;42.620;25.394;2024-03-08T11:58:51;2.50;;;2.30;;
52590;SDS011;38483;42.620;25.394;2024-03-08T12:01:20;4.90;;;3.53;;
52590;SDS011;38483;42.620;25.394;2024-03-08T12:03:52;2.90;;;2.33;;
52590;SDS011;38483;42.620;25.394;2024-03-08T12:06:27;2.70;;;1.90;;
52590;SDS011;38483;42.620;25.394;2024-03-08T12:09:10;2.73;;;2.43;;
52590;SDS011;38483;42.620;25.394;2024-03-08T12:11:37;3.27;;;2.77;;
52590;SDS011;38483;42.620;25.394;2024-03-08T12:14:06;2.17;;;1.97;;
52590;SDS011;38483;42.620;25.394;2024-03-08T12:16:33;2.47;;;2.00;;
52590;SDS011;38483;42.620;25.394;2024-03-08T12:19:00;7.07;;;2.30;;
52590;SDS011;38483;42.620;25.394;2024-03-08T12:21:31;6.93;;;3.60;;
52590;SDS011;38483;42.620;25.394;2024-03-08T12:24:03;4.70;;;2.63;;
52590;SDS011;38483;42.620;25.394;2024-03-08T12:26:36;5.73;;;2.80;;
52590;SDS011;38483;42.620;25.394;2024-03-08T12:31:55;7.57;;;3.43;;
52590;SDS011;38483;42.620;25.394;2024-03-08T12:34:25;5.50;;;3.40;;
52590;SDS011;38483;42.620;25.394;2024-03-08T12:36:55;2.90;;;2.40;;
52590;SDS011;38483;42.620;25.394;2024-03-08T12:39:22;3.17;;;2.40;;
52590;SDS011;38483;42.620;25.394;2024-03-08T12:41:54;2.83;;;2.43;;
52590;SDS011;38483;42.620;25.394;2024-03-08T12:44:21;4.97;;;2.80;;
52590;SDS011;38483;42.620;25.394;2024-03-08T12:46:48;3.27;;;2.70;;
52590;SDS011;38483;42.620;25.394;2024-03-08T12:49:19;4.10;;;2.57;;
52590;SDS011;38483;42.620;25.394;2024-03-08T12:51:49;5.40;;;3.37;;
52590;SDS011;38483;42.620;25.394;2024-03-08T12:54:16;4.60;;;2.60;;
52590;SDS011;38483;42.620;25.394;2024-03-08T12:56:43;3.27;;;2.40;;
52590;SDS011;38483;42.620;25.394;2024-03-08T12:59:10;3.13;;;2.60;;
52590;SDS011;38483;42.620;25.394;2024-03-08T13:01:39;3.60;;;2.60;;
52590;SDS011;38483;42.620;25.394;2024-03-08T13:04:06;3.10;;;2.30;;
52590;SDS011;38483;42.620;25.394;2024-03-08T13:06:37;5.50;;;2.80;;
52590;SDS011;38483;42.620;25.394;2024-03-08T13:09:05;4.20;;;2.97;;
52590;SDS011;38483;42.620;25.394;2024-03-08T13:11:32;4.03;;;2.90;;
52590;SDS011;38483;42.620;25.394;2024-03-08T13:14:04;4.87;;;2.83;;
52590;SDS011;38483;42.620;25.394;2024-03-08T13:16:34;4.70;;;2.03;;
52590;SDS011;38483;42.620;25.394;2024-03-08T13:19:02;3.80;;;2.33;;
52590;SDS011;38483;42.620;25.394;2024-03-08T13:21:29;2.70;;;2.20;;
52590;SDS011;38483;42.620;25.394;2024-03-08T13:23:57;11.77;;;3.33;;
52590;SDS011;38483;42.620;25.394;2024-03-08T13:26:28;5.00;;;2.30;;
52590;SDS011;38483;42.620;25.394;2024-03-08T13:29:00;6.80;;;3.13;;
52590;SDS011;38483;42.620;25.394;2024-03-08T13:31:27;3.17;;;2.30;;
52590;SDS011;38483;42.620;25.394;2024-03-08T13:33:55;4.93;;;3.30;;
52590;SDS011;38483;42.620;25.394;2024-03-08T13:38:59;6.47;;;3.10;;
52590;SDS011;38483;42.620;25.394;2024-03-08T13:41:27;4.30;;;3.20;;
52590;SDS011;38483;42.620;25.394;2024-03-08T13:43:58;4.27;;;2.93;;
52590;SDS011;38483;42.620;25.394;2024-03-08T13:46:26;5.77;;;3.53;;
52590;SDS011;38483;42.620;25.394;2024-03-08T13:48:53;5.30;;;3.10;;
52590;SDS011;38483;42.620;25.394;2024-03-08T13:51:28;3.50;;;3.13;;
52590;SDS011;38483;42.620;25.394;2024-03-08T13:53:55;7.33;;;4.40;;
52590;SDS011;38483;42.620;25.394;2024-03-08T13:56:22;5.37;;;3.37;;
52590;SDS011;38483;42.620;25.394;2024-03-08T13:58:49;4.57;;;3.40;;
52590;SDS011;38483;42.620;25.394;2024-03-08T14:01:19;6.17;;;3.60;;
52590;SDS011;38483;42.620;25.394;2024-03-08T14:03:48;4.73;;;3.73;;
52590;SDS011;38483;42.620;25.394;2024-03-08T14:06:15;6.50;;;3.80;;
52590;SDS011;38483;42.620;25.394;2024-03-08T14:08:49;5.03;;;3.30;;
52590;SDS011;38483;42.620;25.394;2024-03-08T14:11:16;5.47;;;4.33;;
52590;SDS011;38483;42.620;25.394;2024-03-08T14:13:46;9.50;;;5.00;;
52590;SDS011;38483;42.620;25.394;2024-03-08T14:16:14;6.17;;;4.13;;
52590;SDS011;38483;42.620;25.394;2024-03-08T14:18:42;5.33;;;3.40;;
52590;SDS011;38483;42.620;25.394;2024-03-08T14:21:09;7.83;;;4.67;;
52590;SDS011;38483;42.620;25.394;2024-03-08T14:23:40;14.43;;;4.00;;
52590;SDS011;38483;42.620;25.394;2024-03-08T14:26:08;6.03;;;4.00;;
52590;SDS011;38483;42.620;25.394;2024-03-08T14:28:36;4.03;;;3.13;;
52590;SDS011;38483;42.620;25.394;2024-03-08T14:31:06;8.60;;;4.20;;
52590;SDS011;38483;42.620;25.394;2024-03-08T14:33:37;4.23;;;3.10;;
52590;SDS011;38483;42.620;25.394;2024-03-08T14:36:05;6.10;;;4.13;;
52590;SDS011;38483;42.620;25.394;2024-03-08T14:38:32;7.17;;;4.30;;
52590;SDS011;38483;42.620;25.394;2024-03-08T14:41:53;8.07;;;5.47;;
52590;SDS011;38483;42.620;25.394;2024-03-08T14:45:14;5.40;;;3.83;;
52590;SDS011;38483;42.620;25.394;2024-03-08T14:48:34;6.37;;;4.10;;
52590;SDS011;38483;42.620;25.394;2024-03-08T14:51:03;6.87;;;4.00;;
52590;SDS011;38483;42.620;25.394;2024-03-08T14:53:30;7.33;;;4.93;;
52590;SDS011;38483;42.620;25.394;2024-03-08T14:55:57;5.40;;;3.83;;
52590;SDS011;38483;42.620;25.394;2024-03-08T14:58:26;7.97;;;5.20;;
52590;SDS011;38483;42.620;25.394;2024-03-08T15:00:54;7.87;;;4.70;;
52590;SDS011;38483;42.620;25.394;2024-03-08T15:03:27;7.17;;;4.60;;
52590;SDS011;38483;42.620;25.394;2024-03-08T15:05:55;8.33;;;4.30;;
52590;SDS011;38483;42.620;25.394;2024-03-08T15:08:22;6.40;;;4.20;;
52590;SDS011;38483;42.620;25.394;2024-03-08T15:10:51;11.07;;;7.10;;
52590;SDS011;38483;42.620;25.394;2024-03-08T15:13:21;8.13;;;5.10;;
52590;SDS011;38483;42.620;25.394;2024-03-08T15:15:50;9.00;;;4.87;;
52590;SDS011;38483;42.620;25.394;2024-03-08T15:18:24;9.00;;;6.57;;
52590;SDS011;38483;42.620;25.394;2024-03-08T15:20:52;9.67;;;6.83;;
52590;SDS011;38483;42.620;25.394;2024-03-08T15:23:20;8.03;;;5.10;;
52590;SDS011;38483;42.620;25.394;2024-03-08T15:25:47;6.57;;;4.97;;
52590;SDS011;38483;42.620;25.394;2024-03-08T15:28:16;8.23;;;5.60;;
52590;SDS011;38483;42.620;25.394;2024-03-08T15:30:46;11.50;;;6.93;;
52590;SDS011;38483;42.620;25.394;2024-03-08T15:33:18;7.73;;;4.90;;
52590;SDS011;38483;42.620;25.394;2024-03-08T15:35:51;13.27;;;6.43;;
52590;SDS011;38483;42.620;25.394;2024-03-08T15:38:24;9.83;;;6.13;;
52590;SDS011;38483;42.620;25.394;2024-03-08T15:40:54;9.67;;;6.87;;
52590;SDS011;38483;42.620;25.394;2024-03-08T15:43:21;13.47;;;10.47;;
52590;SDS011;38483;42.620;25.394;2024-03-08T15:45:49;13.47;;;6.80;;
52590;SDS011;38483;42.620;25.394;2024-03-08T15:48:16;14.97;;;6.83;;